TimeEST,TemperatureF,Dew PointF,Humidity,Sea Level PressureIn,VisibilityMPH,Wind Direction,Wind SpeedMPH,Gust SpeedMPH,PrecipitationIn,Events,Conditions,WindDirDegrees,DateUTC
1:52 AM,39.9,32.0,73,30.01,10.0,SW,5.8,-,N/A,,Clear,220,2013-02-05 06:52:00
2:52 AM,39.0,33.1,79,29.99,10.0,SSW,5.8,-,N/A,,Mostly Cloudy,210,2013-02-05 07:52:00
3:52 AM,37.9,33.1,83,29.98,10.0,SSW,6.9,-,N/A,,Clear,210,2013-02-05 08:52:00
4:52 AM,39.0,34.0,82,29.98,10.0,SSW,4.6,-,N/A,,Clear,210,2013-02-05 09:52:00
5:52 AM,37.0,34.0,89,29.99,10.0,SW,3.5,-,N/A,,Clear,230,2013-02-05 10:52:00
6:52 AM,35.1,32.0,89,30.01,10.0,Calm,Calm,-,N/A,,Clear,0,2013-02-05 11:52:00
7:52 AM,36.0,33.1,89,30.03,9.0,Calm,Calm,-,N/A,,Clear,0,2013-02-05 12:52:00
8:52 AM,43.0,35.1,74,30.03,10.0,SW,8.1,-,N/A,,Clear,230,2013-02-05 13:52:00
9:52 AM,51.1,35.1,54,30.04,10.0,WSW,9.2,-,N/A,,Clear,250,2013-02-05 14:52:00
10:52 AM,55.9,34.0,44,30.01,10.0,SW,16.1,21.9,N/A,,Clear,230,2013-02-05 15:52:00
11:52 AM,59.0,34.0,39,30.00,10.0,WSW,15.0,24.2,N/A,,Partly Cloudy,250,2013-02-05 16:52:00
12:52 PM,59.0,32.0,36,29.96,10.0,West,12.7,-,N/A,,Mostly Cloudy,260,2013-02-05 17:52:00
1:52 PM,64.0,34.0,33,29.93,10.0,WSW,13.8,20.7,N/A,,Overcast,250,2013-02-05 18:52:00
2:52 PM,64.0,32.0,30,29.91,10.0,WSW,12.7,21.9,N/A,,Mostly Cloudy,240,2013-02-05 19:52:00
3:52 PM,66.0,35.1,32,29.90,10.0,SW,12.7,-,N/A,,Scattered Clouds,230,2013-02-05 20:52:00
4:52 PM,63.0,36.0,37,29.90,10.0,WSW,8.1,18.4,N/A,,Partly Cloudy,240,2013-02-05 21:52:00
6:52 PM,57.0,41.0,55,29.93,10.0,WSW,6.9,-,N/A,,Clear,250,2013-02-05 23:52:00
7:52 PM,53.1,41.0,64,29.95,10.0,WSW,5.8,-,N/A,,Clear,250,2013-02-06 00:52:00
8:52 PM,54.0,42.1,64,29.97,10.0,West,5.8,-,N/A,,Clear,270,2013-02-06 01:52:00
9:52 PM,50.0,42.1,74,29.98,10.0,SW,6.9,-,N/A,,Clear,230,2013-02-06 02:52:00
10:52 PM,50.0,42.1,74,29.99,10.0,West,4.6,-,N/A,,Clear,270,2013-02-06 03:52:00
11:52 PM,48.9,43.0,80,29.99,8.0,West,4.6,-,N/A,,Clear,270,2013-02-06 04:52:00